Elsmere, Kentucky
Current Conditions -  °F | °C
As of 4:52 AM on Tuesday 21 Oct 2014 (Local Time) from KCVG Reporting Station
Clear Clear  
Wind Chill: 50°   Ceiling: Unl
Heat Index: 50°   Visibility: 9mi
Dew Point: 46°   Wind: 9mph
Humidity: 86%   Direction: 310°NW
Pressure: 29.94"   Gusts: NA
Location:  39.017°N, 84.607°W
Report Text: KCVG 210852Z 31008KT 9SM CLR 10/08 A2994 RMK AO2 SLP134 T01000078 53007
Loading
Personal Weather Stations






























Interactive Weather Map
Tropical Storm Tracking
New forecast layout! Learn more

10-Day Weather Forecast

Advertisements
Track Severe Weather on mobile